Phu Lien, Viet Nam

6:04 AM ICT on July 28, 2016 (GMT +0700)
Noibai International | | Change Station

Elev 36 ft 21.22 °N, 105.81 °E | Updated 34 minutes ago

Heavy Rain
Heavy Rain
75 °F
Feels Like 75 °F
N
21
Wind Variable Wind from NE

Today
High -- | Low -- °F
--% Chance of Precip.
Yesterday
High -- | Low -- °F
Precip. -- in
Pressure 29.59 in
Visibility 2.5 miles
Clouds Scattered Clouds 700 ft
Mostly Cloudy 1500 ft
Dew Point 73 °F
Humidity 94%
Rainfall 0.00 in
Snow Depth Not available.
5:26 AM 6:33 PM
Last Quarter, 39% visible
METAR VVNB 272230Z 05018KT 4000 +RA SCT007 BKN015 24/23 Q1002 NOSIG
Pressure 29.59 in
Visibility 2.5 miles
Clouds Scattered Clouds 700 ft
Mostly Cloudy 1500 ft
Dew Point 73 °F
Humidity 94%
Rainfall 0.00 in
Snow Depth Not available.
5:26 AM 6:33 PM
Last Quarter, 39% visible
METAR VVNB 272230Z 05018KT 4000 +RA SCT007 BKN015 24/23 Q1002 NOSIG

10-Day Weather Forecast

No radar image for this location.
×

Almanac

Astronomy

Jul. 28, 2016 Rise Set
Actual Time
Civil Twilight
Nautical Twilight
Astronomical Twilight
Moon
Length of Visible Light
Length of Day
Tomorrow will be .
, % of the Moon is Illuminated

Today's Extremes

Country Highs Country Lows

Community

WunderPhotos

Upload Photos

1,927,953 photos uploaded!

WunderBlog® & News

Nearby

Air Quality

  Air Quality AQ Index Pollutant
Not available.

Snow Depth

Station Depth Elevation

Earthquake Activity

City Distance Mag. Time & Date
Minimum magnitude displayed is 2.5.

Coastal Water Temperatures

Place Temperature

Stations

Nearby Weather Stations

Station Location Temp. Windchill Dew Point Humidity Wind Precip. Elev Updated Type